Time;durP1;ratioP1;P1;durP2;ratioP2;P2;SDS_P1;SDS_P2;PMS_P1;PMS_P2;Temp;Humidity;BMP_temperature;BMP_pressure;BME280_temperature;BME280_humidity;BME280_pressure;Samples;Min_cycle;Max_cycle;Signal;HPM_P1;HPM_P2
2022/09/07 00:00:33;;;;;;;39.30;32.30;;;18.60;99.90;;;;;;5054227;28;20094;-77
2022/09/07 00:02:59;;;;;;;44.72;33.40;;;18.60;99.90;;;;;;5071761;28;20357;-78
2022/09/07 00:05:25;;;;;;;43.17;34.50;;;18.60;99.90;;;;;;5054089;28;20101;-79
2022/09/07 00:07:51;;;;;;;50.17;37.05;;;18.60;99.90;;;;;;5054118;28;20123;-79
2022/09/07 00:10:17;;;;;;;46.28;34.00;;;18.60;99.90;;;;;;5074285;28;20123;-76
2022/09/07 00:12:42;;;;;;;36.58;29.98;;;18.60;99.90;;;;;;5075462;28;20128;-77
2022/09/07 00:15:11;;;;;;;38.00;30.17;;;18.60;99.90;;;;;;5075182;28;20045;-77
2022/09/07 00:17:37;;;;;;;39.08;31.63;;;18.60;99.90;;;;;;5057616;28;20040;-77
2022/09/07 00:20:06;;;;;;;40.05;30.23;;;18.60;99.90;;;;;;5075223;28;20091;-77
2022/09/07 00:22:32;;;;;;;33.22;29.58;;;18.60;99.90;;;;;;5057642;28;20059;-78
2022/09/07 00:24:58;;;;;;;41.22;32.78;;;18.50;99.90;;;;;;5075324;28;20071;-77
2022/09/07 00:27:24;;;;;;;44.50;35.15;;;18.60;99.90;;;;;;5057721;28;20044;-78
2022/09/07 00:29:49;;;;;;;46.08;33.30;;;18.60;99.90;;;;;;5057405;28;20560;-76
2022/09/07 00:32:15;;;;;;;36.67;28.90;;;18.60;99.90;;;;;;5074996;28;20491;-77
2022/09/07 00:34:41;;;;;;;39.28;29.83;;;18.60;99.90;;;;;;5057631;28;20059;-76
2022/09/07 00:37:07;;;;;;;38.30;28.63;;;18.60;99.90;;;;;;5074867;28;20119;-77
2022/09/07 00:39:33;;;;;;;28.08;24.88;;;18.50;99.90;;;;;;5074923;28;20574;-78
2022/09/07 00:42:00;;;;;;;26.85;23.48;;;18.50;99.90;;;;;;5075021;28;20054;-79
2022/09/07 00:45:03;;;;;;;29.05;22.73;;;18.40;99.90;;;;;;5074895;28;20110;-77
2022/09/07 00:47:38;;;;;;;23.58;19.20;;;18.30;99.90;;;;;;5069844;28;20105;-77
2022/09/07 00:50:17;;;;;;;22.92;18.60;;;18.30;99.90;;;;;;5074761;28;20353;-77
2022/09/07 00:52:47;;;;;;;26.17;20.13;;;18.20;99.90;;;;;;5057182;28;20048;-78
2022/09/07 00:55:15;;;;;;;20.30;16.63;;;18.10;99.90;;;;;;5074550;28;20044;-77
2022/09/07 00:57:45;;;;;;;14.57;11.68;;;18.10;99.90;;;;;;5074630;28;20723;-78
2022/09/07 01:00:11;;;;;;;15.43;11.13;;;18.00;99.90;;;;;;5074607;28;20040;-78
2022/09/07 01:02:38;;;;;;;25.35;14.48;;;17.90;99.90;;;;;;5074452;28;20429;-77
2022/09/07 01:05:14;;;;;;;28.70;17.33;;;17.80;99.90;;;;;;5074350;28;20113;-79
2022/09/07 01:07:40;;;;;;;18.13;10.48;;;17.70;99.90;;;;;;5073943;28;20259;-77
2022/09/07 01:10:07;;;;;;;27.92;16.67;;;17.60;99.90;;;;;;5056660;28;20546;-78
2022/09/07 01:12:33;;;;;;;24.33;15.13;;;17.40;99.90;;;;;;5073980;28;20453;-77
2022/09/07 01:14:59;;;;;;;14.80;10.40;;;17.40;99.90;;;;;;5074238;28;20047;-78
2022/09/07 01:17:47;;;;;;;19.38;10.80;;;17.30;99.90;;;;;;5056784;28;20319;-77
2022/09/07 01:21:05;;;;;;;17.52;8.63;;;17.30;99.90;;;;;;5056574;28;20339;-78
2022/09/07 01:24:03;;;;;;;11.35;5.88;;;17.30;99.90;;;;;;5046922;28;20068;-78
2022/09/07 01:26:47;;;;;;;16.48;8.40;;;17.20;99.90;;;;;;5047277;28;20373;-78
2022/09/07 01:29:16;;;;;;;30.85;10.40;;;17.20;99.90;;;;;;5056255;28;20376;-77
2022/09/07 01:32:01;;;;;;;10.05;6.07;;;17.20;99.90;;;;;;5074231;28;20047;-77
2022/09/07 01:34:27;;;;;;;9.38;5.20;;;17.30;99.90;;;;;;5056391;28;20071;-77
2022/09/07 01:37:11;;;;;;;8.82;5.13;;;17.30;99.90;;;;;;5073838;28;20044;-78
2022/09/07 01:39:55;;;;;;;10.45;5.78;;;17.20;99.90;;;;;;5056229;28;20059;-77
2022/09/07 01:42:30;;;;;;;12.27;6.90;;;17.20;99.90;;;;;;5073777;28;20036;-79
2022/09/07 01:45:01;;;;;;;12.68;7.30;;;17.10;99.90;;;;;;5073674;28;20047;-81
2022/09/07 01:47:39;;;;;;;12.88;7.47;;;17.10;99.90;;;;;;5055670;28;20048;-79
2022/09/07 01:50:13;;;;;;;11.50;6.90;;;17.10;99.90;;;;;;5073453;28;20351;-81
2022/09/07 01:52:57;;;;;;;14.20;6.20;;;17.00;99.90;;;;;;5055989;28;20083;-79
2022/09/07 01:55:39;;;;;;;10.75;7.20;;;17.00;99.90;;;;;;5073494;28;20055;-79
2022/09/07 01:58:14;;;;;;;14.40;7.05;;;17.00;99.90;;;;;;5056013;28;20327;-79
2022/09/07 02:00:45;;;;;;;15.60;7.97;;;17.00;99.90;;;;;;5073200;28;20060;-79
2022/09/07 02:03:19;;;;;;;14.45;8.35;;;17.00;99.90;;;;;;5055831;28;20077;-80
2022/09/07 02:06:05;;;;;;;10.30;6.35;;;17.00;99.90;;;;;;5055627;28;20041;-77
2022/09/07 02:08:39;;;;;;;10.68;6.80;;;17.00;99.90;;;;;;5072958;28;20044;-79
2022/09/07 02:11:17;;;;;;;15.20;7.88;;;17.00;99.90;;;;;;5073178;28;20044;-77
2022/09/07 02:13:59;;;;;;;15.98;9.15;;;17.00;99.90;;;;;;5055660;28;20053;-79
2022/09/07 02:16:30;;;;;;;12.20;8.35;;;17.00;99.90;;;;;;5072759;28;20048;-79
2022/09/07 02:19:03;;;;;;;18.30;8.88;;;17.00;99.90;;;;;;5055573;28;20051;-78
2022/09/07 02:21:41;;;;;;;14.20;9.00;;;16.90;99.90;;;;;;5055317;28;20032;-78
2022/09/07 02:24:19;;;;;;;12.77;7.55;;;17.00;99.90;;;;;;5072733;28;20388;-78
2022/09/07 02:26:48;;;;;;;12.82;8.05;;;17.00;99.90;;;;;;5072241;28;20048;-79
2022/09/07 02:29:14;;;;;;;18.33;9.27;;;17.00;99.90;;;;;;5055449;28;20044;-78
2022/09/07 02:31:40;;;;;;;8.68;6.82;;;16.90;99.90;;;;;;5055285;28;20044;-78
2022/09/07 02:34:06;;;;;;;12.75;8.13;;;16.90;99.90;;;;;;5071808;28;20044;-79
2022/09/07 02:36:38;;;;;;;13.98;8.10;;;16.90;99.90;;;;;;5055334;28;20097;-79
2022/09/07 02:39:04;;;;;;;16.05;9.75;;;16.90;99.90;;;;;;5055304;28;20355;-80
2022/09/07 02:41:39;;;;;;;11.07;7.57;;;16.90;99.90;;;;;;5055302;28;20049;-78
2022/09/07 02:44:18;;;;;;;9.75;7.45;;;16.90;99.90;;;;;;5072801;28;20051;-77
2022/09/07 02:47:02;;;;;;;9.60;6.93;;;16.90;99.90;;;;;;5072325;28;20110;-79
2022/09/07 02:49:51;;;;;;;16.40;8.05;;;16.90;99.90;;;;;;5054828;28;20048;-78
2022/09/07 02:52:29;;;;;;;16.48;9.55;;;16.80;99.90;;;;;;5065601;28;20066;-78
2022/09/07 02:55:14;;;;;;;9.88;8.18;;;16.80;99.90;;;;;;5055025;28;20044;-79
2022/09/07 02:58:10;;;;;;;13.77;7.53;;;16.80;99.90;;;;;;5054876;28;20445;-79
2022/09/07 03:00:43;;;;;;;12.35;7.55;;;16.80;99.90;;;;;;5054955;28;20040;-78
2022/09/07 03:03:37;;;;;;;13.57;8.45;;;16.80;99.90;;;;;;5072551;28;20121;-79
2022/09/07 03:06:39;;;;;;;17.55;10.13;;;16.80;99.90;;;;;;5072548;28;20575;-78
2022/09/07 03:09:11;;;;;;;11.85;8.27;;;16.80;99.90;;;;;;5064270;28;20044;-78
2022/09/07 03:11:37;;;;;;;13.98;8.07;;;16.80;99.90;;;;;;5072531;28;20044;-78
2022/09/07 03:14:13;;;;;;;18.23;11.48;;;16.80;99.90;;;;;;5072376;28;20110;-77
2022/09/07 03:16:39;;;;;;;14.23;8.85;;;16.80;99.90;;;;;;5054631;28;20054;-78
2022/09/07 03:19:05;;;;;;;16.23;11.25;;;16.80;99.90;;;;;;5054716;28;20049;-77
2022/09/07 03:21:31;;;;;;;14.50;11.90;;;16.80;99.90;;;;;;5054760;28;20041;-78
2022/09/07 03:23:57;;;;;;;12.45;9.35;;;16.80;99.90;;;;;;5072134;28;20028;-78
2022/09/07 03:26:26;;;;;;;22.63;13.32;;;16.80;99.90;;;;;;5054712;28;20044;-80
2022/09/07 03:28:52;;;;;;;19.77;12.07;;;16.70;99.90;;;;;;5054628;28;20044;-79
2022/09/07 03:31:18;;;;;;;12.38;9.25;;;16.70;99.90;;;;;;5054725;28;20052;-76
2022/09/07 03:33:44;;;;;;;24.52;13.77;;;16.70;99.90;;;;;;5072054;28;20044;-78
2022/09/07 03:36:10;;;;;;;16.38;11.80;;;16.70;99.90;;;;;;5072028;28;20331;-78
2022/09/07 03:38:35;;;;;;;27.75;14.93;;;16.70;99.90;;;;;;5072203;28;20033;-79
2022/09/07 03:41:04;;;;;;;27.42;15.18;;;16.70;99.90;;;;;;5072125;28;20052;-78
2022/09/07 03:43:31;;;;;;;38.92;17.55;;;16.60;99.90;;;;;;5054590;28;20052;-78
2022/09/07 03:46:02;;;;;;;22.48;14.30;;;16.60;99.90;;;;;;5075518;28;20048;-78
2022/09/07 03:48:33;;;;;;;21.73;14.27;;;16.60;99.90;;;;;;5075620;28;20052;-79
2022/09/07 03:51:01;;;;;;;28.33;15.65;;;16.60;99.90;;;;;;5058232;28;20143;-77
2022/09/07 03:53:30;;;;;;;15.80;10.45;;;16.50;99.90;;;;;;5058394;28;20052;-78
2022/09/07 03:56:02;;;;;;;15.50;10.57;;;16.50;99.90;;;;;;5075849;28;20119;-76
2022/09/07 03:58:30;;;;;;;37.03;17.75;;;16.50;99.90;;;;;;5075781;28;20044;-77
2022/09/07 04:00:56;;;;;;;24.92;15.43;;;16.40;99.90;;;;;;5075657;28;20147;-78
2022/09/07 04:03:22;;;;;;;14.15;10.55;;;16.40;99.90;;;;;;5075591;28;20036;-78
2022/09/07 04:05:48;;;;;;;18.13;10.95;;;16.40;99.90;;;;;;5057935;28;20450;-77
2022/09/07 04:08:14;;;;;;;98.38;26.85;;;16.40;99.90;;;;;;5075562;28;20105;-77
2022/09/07 04:10:40;;;;;;;34.33;17.02;;;16.40;99.90;;;;;;5074932;28;20533;-78
2022/09/07 04:13:07;;;;;;;20.13;12.77;;;16.40;99.90;;;;;;5075546;28;20048;-76
2022/09/07 04:15:33;;;;;;;17.85;12.57;;;16.40;99.90;;;;;;5058037;28;20439;-77
2022/09/07 04:18:00;;;;;;;19.65;12.90;;;16.30;99.90;;;;;;5057797;28;20041;-78
2022/09/07 04:20:26;;;;;;;28.85;16.88;;;16.40;99.90;;;;;;5057772;28;20076;-77
2022/09/07 04:22:51;;;;;;;37.85;19.38;;;16.40;99.90;;;;;;5075409;28;20072;-78
2022/09/07 04:25:18;;;;;;;93.18;29.55;;;16.40;99.90;;;;;;5057697;28;20119;-78
2022/09/07 04:27:44;;;;;;;54.88;23.17;;;16.40;99.90;;;;;;5075356;28;20044;-76
2022/09/07 04:30:12;;;;;;;24.65;14.48;;;16.30;99.90;;;;;;5075163;28;20468;-78
2022/09/07 04:32:38;;;;;;;51.13;22.00;;;16.30;99.90;;;;;;5057258;28;20453;-77
2022/09/07 04:35:04;;;;;;;26.63;13.07;;;16.30;99.90;;;;;;5075092;28;20098;-77
2022/09/07 04:37:30;;;;;;;54.65;21.30;;;16.20;99.90;;;;;;5057585;28;20044;-79
2022/09/07 04:39:56;;;;;;;24.40;11.93;;;16.20;99.90;;;;;;5075093;28;20048;-79
2022/09/07 04:42:22;;;;;;;45.97;19.15;;;16.20;99.90;;;;;;5057408;28;20499;-78
2022/09/07 04:44:50;;;;;;;48.95;19.27;;;16.10;99.90;;;;;;5057226;28;20052;-78
2022/09/07 04:47:16;;;;;;;309.45;35.33;;;16.10;99.90;;;;;;5074641;28;20397;-78
2022/09/07 04:49:42;;;;;;;512.63;55.97;;;16.10;99.90;;;;;;5057288;28;20063;-77
2022/09/07 04:52:08;;;;;;;502.98;53.20;;;16.00;99.90;;;;;;5057334;28;20082;-76
2022/09/07 04:54:34;;;;;;;211.13;19.05;;;16.00;99.90;;;;;;5074907;28;20036;-77
2022/09/07 04:57:00;;;;;;;197.38;25.85;;;15.90;99.90;;;;;;5073615;28;20048;-79
2022/09/07 04:59:26;;;;;;;194.73;30.40;;;15.90;99.90;;;;;;5074667;28;20450;-80
2022/09/07 05:01:51;;;;;;;548.88;60.78;;;15.90;99.90;;;;;;5074217;28;20037;-78
2022/09/07 05:04:17;;;;;;;74.88;20.85;;;15.90;99.90;;;;;;5057230;28;20029;-79
2022/09/07 05:06:43;;;;;;;470.38;37.63;;;15.80;99.90;;;;;;5057020;28;20037;-79
2022/09/07 05:09:09;;;;;;;20.58;12.07;;;15.80;99.90;;;;;;5074421;28;20052;-80
2022/09/07 05:11:35;;;;;;;31.55;16.05;;;15.70;99.90;;;;;;5056836;28;20102;-78
2022/09/07 05:14:02;;;;;;;30.30;15.60;;;15.70;99.90;;;;;;5074297;28;20045;-79
2022/09/07 05:16:29;;;;;;;47.65;21.02;;;15.60;99.90;;;;;;5056776;28;20040;-78
2022/09/07 05:18:57;;;;;;;39.95;18.80;;;15.60;99.90;;;;;;5056933;28;20044;-78
2022/09/07 05:21:25;;;;;;;35.75;18.45;;;15.70;99.90;;;;;;5056760;28;20040;-79
2022/09/07 05:23:52;;;;;;;437.58;51.88;;;15.70;99.90;;;;;;5074260;28;20411;-79
2022/09/07 05:26:21;;;;;;;31.65;16.45;;;15.60;99.90;;;;;;5056703;28;20475;-79
2022/09/07 05:28:47;;;;;;;24.52;15.45;;;15.60;99.90;;;;;;5074003;28;20055;-80
2022/09/07 05:31:15;;;;;;;23.15;13.63;;;15.70;99.90;;;;;;5056294;28;20361;-79
2022/09/07 05:33:50;;;;;;;14.45;11.55;;;15.70;99.90;;;;;;5056448;28;20032;-78
2022/09/07 05:36:15;;;;;;;20.98;14.77;;;15.80;99.90;;;;;;5056461;28;20107;-79
2022/09/07 05:38:42;;;;;;;22.75;15.32;;;15.90;99.90;;;;;;5073947;28;20044;-77
2022/09/07 05:41:19;;;;;;;15.20;12.15;;;15.90;99.90;;;;;;5073808;28;20040;-79
2022/09/07 05:43:46;;;;;;;19.42;13.55;;;15.90;99.90;;;;;;5073789;28;20036;-79
2022/09/07 05:46:13;;;;;;;15.70;12.80;;;16.00;99.90;;;;;;5073644;28;20079;-79
2022/09/07 05:48:39;;;;;;;19.38;12.98;;;16.10;99.90;;;;;;5056287;28;20052;-78
2022/09/07 05:51:06;;;;;;;18.50;12.32;;;16.10;99.90;;;;;;5055839;28;20051;-80
2022/09/07 05:53:36;;;;;;;18.00;14.20;;;16.20;99.90;;;;;;5073601;28;20048;-79
2022/09/07 05:56:03;;;;;;;19.08;14.55;;;16.20;99.90;;;;;;5056038;28;20041;-79
2022/09/07 05:58:29;;;;;;;16.52;13.57;;;16.30;99.90;;;;;;5073316;28;20055;-81
2022/09/07 06:01:05;;;;;;;21.42;16.17;;;16.30;99.90;;;;;;5073607;28;20040;-79
2022/09/07 06:03:31;;;;;;;18.27;13.65;;;16.40;99.90;;;;;;5073241;28;20051;-78
2022/09/07 06:06:08;;;;;;;20.55;15.60;;;16.50;99.90;;;;;;5073534;28;20052;-78
2022/09/07 06:08:36;;;;;;;18.25;14.45;;;16.60;99.90;;;;;;5055513;28;20098;-79
2022/09/07 06:11:10;;;;;;;18.65;15.10;;;16.60;99.90;;;;;;5073163;28;20037;-79
2022/09/07 06:13:37;;;;;;;34.92;21.15;;;16.70;99.90;;;;;;5073319;28;20048;-78
2022/09/07 06:16:05;;;;;;;31.65;20.65;;;16.70;99.90;;;;;;5055499;28;20152;-78
2022/09/07 06:18:33;;;;;;;27.55;19.33;;;16.80;99.90;;;;;;5055801;28;20150;-80
2022/09/07 06:21:10;;;;;;;25.83;19.58;;;16.80;99.90;;;;;;5055641;28;20358;-81
2022/09/07 06:23:37;;;;;;;31.45;22.38;;;16.90;99.90;;;;;;5055661;28;20037;-80
2022/09/07 06:26:03;;;;;;;24.63;18.00;;;16.90;99.90;;;;;;5055505;28;20051;-78
2022/09/07 06:28:35;;;;;;;30.55;22.67;;;17.00;99.90;;;;;;5055426;28;20052;-79
2022/09/07 06:31:12;;;;;;;24.73;19.30;;;17.00;99.90;;;;;;5055133;28;20040;-79
2022/09/07 06:33:39;;;;;;;29.92;20.60;;;17.10;99.90;;;;;;5074728;28;20066;-78
2022/09/07 06:36:10;;;;;;;29.83;22.23;;;17.10;99.90;;;;;;5058818;28;20040;-81
2022/09/07 06:38:37;;;;;;;26.05;20.15;;;17.20;99.90;;;;;;5058957;28;20128;-78
2022/09/07 06:41:27;;;;;;;25.65;19.52;;;17.20;99.90;;;;;;5075948;28;20338;-80
2022/09/07 06:43:54;;;;;;;49.15;28.90;;;17.30;99.90;;;;;;5075978;28;20079;-77
2022/09/07 06:46:21;;;;;;;25.45;19.67;;;17.30;99.90;;;;;;5075626;28;20061;-80
2022/09/07 06:48:51;;;;;;;24.52;19.15;;;17.40;99.90;;;;;;5059016;28;20052;-77
2022/09/07 06:51:18;;;;;;;29.42;22.08;;;17.40;99.90;;;;;;5076241;28;20327;-77
2022/09/07 06:53:46;;;;;;;27.90;22.27;;;17.40;99.90;;;;;;5075748;28;20326;-77
2022/09/07 06:56:18;;;;;;;35.50;24.45;;;17.50;99.90;;;;;;5057912;28;20070;-78
2022/09/07 06:58:44;;;;;;;24.23;21.35;;;17.60;99.90;;;;;;5075729;28;20044;-78
2022/09/07 07:01:14;;;;;;;26.27;22.45;;;17.60;99.90;;;;;;5075714;28;20582;-79
2022/09/07 07:03:41;;;;;;;32.33;24.80;;;17.60;99.90;;;;;;5055898;28;20048;-80
2022/09/07 07:06:07;;;;;;;31.60;23.17;;;17.70;99.90;;;;;;5054625;28;20040;-80
2022/09/07 07:08:33;;;;;;;22.92;20.30;;;17.80;99.90;;;;;;5054676;28;20047;-81
2022/09/07 07:11:11;;;;;;;23.35;18.75;;;17.80;99.90;;;;;;5072296;28;20036;-79
2022/09/07 07:13:38;;;;;;;25.55;21.17;;;17.80;99.90;;;;;;5051676;28;20048;-80
2022/09/07 07:16:07;;;;;;;21.83;19.60;;;17.80;99.90;;;;;;5060204;28;20059;-79
2022/09/07 07:18:33;;;;;;;22.38;19.48;;;17.90;99.90;;;;;;5054794;28;20453;-79
2022/09/07 07:21:07;;;;;;;23.25;20.45;;;17.90;99.90;;;;;;5069705;28;20083;-81
2022/09/07 07:23:33;;;;;;;26.77;21.52;;;18.00;99.90;;;;;;5078670;28;20052;-80
2022/09/07 07:26:20;;;;;;;27.55;22.27;;;18.10;99.90;;;;;;5078910;28;20083;-80
2022/09/07 07:28:50;;;;;;;23.33;20.00;;;18.20;99.90;;;;;;5078850;28;20047;-80
2022/09/07 07:31:19;;;;;;;23.63;19.02;;;18.20;99.90;;;;;;5096339;28;20592;-80
2022/09/07 07:36:30;;;;;;;21.77;19.38;;;18.30;99.90;;;;;;5075881;28;20058;-80
2022/09/07 07:38:56;;;;;;;20.92;17.33;;;18.30;99.90;;;;;;5059131;28;20458;-78
2022/09/07 07:41:26;;;;;;;24.42;20.40;;;18.40;99.90;;;;;;5076092;28;20044;-80
2022/09/07 07:43:55;;;;;;;;;;;18.50;99.90;;;;;;5076433;28;20127;-81
2022/09/07 07:46:24;;;;;;;18.60;16.67;;;18.60;99.90;;;;;;5052427;28;20206;-81
2022/09/07 07:48:50;;;;;;;18.38;16.10;;;18.70;99.90;;;;;;5077813;28;20075;-80
2022/09/07 07:51:16;;;;;;;20.42;17.52;;;18.70;99.90;;;;;;5078041;28;20094;-80
2022/09/07 07:53:42;;;;;;;19.98;16.75;;;18.80;99.90;;;;;;5078282;28;20373;-80
2022/09/07 07:56:09;;;;;;;20.27;15.82;;;18.80;99.90;;;;;;5078049;28;20043;-81
2022/09/07 07:58:36;;;;;;;18.35;16.45;;;18.90;99.90;;;;;;5095813;28;20544;-80
2022/09/07 08:01:08;;;;;;;19.95;16.60;;;19.00;99.90;;;;;;5095681;28;20126;-81
2022/09/07 08:03:36;;;;;;;16.35;14.40;;;19.00;99.90;;;;;;5078069;28;20036;-81
2022/09/07 08:06:24;;;;;;;19.27;16.15;;;19.00;99.90;;;;;;5096680;28;20046;-85
2022/09/07 08:08:54;;;;;;;18.33;16.38;;;19.00;99.90;;;;;;5070342;28;20024;-80
2022/09/07 08:11:21;;;;;;;19.90;16.40;;;18.90;99.90;;;;;;5041742;28;20044;-81
2022/09/07 08:13:49;;;;;;;20.00;16.65;;;18.90;99.90;;;;;;5057962;28;20040;-80
2022/09/07 08:16:16;;;;;;;20.92;18.52;;;19.00;99.90;;;;;;5057895;28;20040;-80
2022/09/07 08:18:42;;;;;;;20.48;16.20;;;19.00;99.90;;;;;;5041250;28;20101;-81
2022/09/07 08:21:13;;;;;;;21.35;16.52;;;19.10;99.90;;;;;;5057782;28;20086;-82
2022/09/07 08:23:40;;;;;;;18.42;15.95;;;19.10;99.90;;;;;;5041597;28;20127;-80
2022/09/07 08:26:06;;;;;;;17.95;13.50;;;19.20;99.90;;;;;;5075056;28;20041;-81
2022/09/07 08:28:37;;;;;;;13.43;12.02;;;19.40;99.90;;;;;;5075983;28;20075;-81
2022/09/07 08:31:05;;;;;;;12.38;11.18;;;19.60;99.90;;;;;;5040601;28;20051;-81
2022/09/07 08:33:31;;;;;;;11.13;9.93;;;20.10;99.90;;;;;;5058479;28;20036;-81
2022/09/07 08:36:06;;;;;;;10.27;8.32;;;20.70;99.90;;;;;;5057111;28;20052;-82
2022/09/07 08:38:33;;;;;;;11.05;8.52;;;21.10;99.90;;;;;;5074929;28;20044;-80
2022/09/07 08:41:01;;;;;;;10.18;8.10;;;21.20;99.90;;;;;;5074254;28;20063;-80
2022/09/07 08:43:52;;;;;;;8.80;8.00;;;21.30;99.90;;;;;;5057292;28;20036;-81
2022/09/07 08:47:02;;;;;;;10.38;8.00;;;21.50;99.90;;;;;;5074277;28;20047;-81
2022/09/07 08:49:42;;;;;;;;;;;21.60;99.90;;;;;;5034880;28;20055;-81
2022/09/07 08:52:11;;;;;;;9.55;6.70;;;21.60;99.90;;;;;;5057247;28;19927;-80
2022/09/07 08:54:39;;;;;;;8.40;7.60;;;21.60;99.90;;;;;;5074396;28;20098;-82
2022/09/07 08:57:05;;;;;;;9.85;8.45;;;21.60;99.90;;;;;;5074324;28;20040;-84
2022/09/07 08:59:45;;;;;;;8.88;8.00;;;21.50;99.90;;;;;;5057054;28;20047;-81
2022/09/07 09:02:15;;;;;;;10.50;9.50;;;21.30;99.90;;;;;;5057055;28;20032;-80
2022/09/07 09:04:42;;;;;;;9.75;8.75;;;21.10;99.90;;;;;;5075491;28;20040;-81
2022/09/07 09:07:38;;;;;;;9.13;8.20;;;20.90;99.90;;;;;;5056826;28;20048;-81
2022/09/07 09:10:22;;;;;;;9.93;8.95;;;20.80;99.90;;;;;;5073986;28;20478;-81
2022/09/07 09:13:11;;;;;;;8.68;7.80;;;20.70;99.90;;;;;;5056603;28;20044;-83
2022/09/07 09:15:55;;;;;;;7.65;6.95;;;21.00;99.90;;;;;;5074167;28;20037;-83
2022/09/07 09:18:27;;;;;;;8.18;6.78;;;21.10;99.90;;;;;;5056644;28;20070;-80
2022/09/07 09:20:55;;;;;;;9.07;7.65;;;21.00;99.90;;;;;;5073992;28;20053;-80
2022/09/07 09:23:35;;;;;;;8.93;6.97;;;21.20;99.90;;;;;;5056601;28;20048;-78
2022/09/07 09:26:33;;;;;;;7.45;6.75;;;21.20;99.90;;;;;;5073992;28;20119;-80
2022/09/07 09:29:14;;;;;;;8.27;6.85;;;21.00;99.90;;;;;;5074321;28;20056;-78
2022/09/07 09:31:39;;;;;;;7.18;6.30;;;20.80;99.90;;;;;;5060164;28;20350;-80
2022/09/07 09:34:10;;;;;;;9.50;6.22;;;20.80;99.90;;;;;;5077634;28;20131;-80
2022/09/07 09:36:48;;;;;;;6.38;5.65;;;21.40;99.90;;;;;;5059950;28;20062;-81
2022/09/07 09:39:34;;;;;;;6.38;5.35;;;22.00;99.90;;;;;;5060039;28;20086;-80
2022/09/07 09:42:15;;;;;;;6.85;6.15;;;22.10;99.90;;;;;;5056648;28;20090;-79
2022/09/07 09:44:42;;;;;;;5.10;4.60;;;21.90;99.90;;;;;;5056036;28;20170;-80
2022/09/07 09:47:28;;;;;;;7.25;5.45;;;21.70;99.90;;;;;;5053472;28;20354;-78
2022/09/07 09:49:55;;;;;;;6.00;4.75;;;21.50;99.90;;;;;;5055825;28;20052;-79
2022/09/07 09:52:23;;;;;;;4.47;4.07;;;21.30;99.90;;;;;;5056063;28;20345;-80
2022/09/07 09:54:52;;;;;;;6.30;3.97;;;21.30;99.90;;;;;;5074367;28;20048;-79
2022/09/07 09:57:45;;;;;;;4.80;3.28;;;21.30;99.90;;;;;;5038814;28;20481;-79
2022/09/07 10:00:14;;;;;;;4.13;3.00;;;21.80;99.90;;;;;;5055928;28;20040;-82
2022/09/07 10:02:40;;;;;;;5.72;2.80;;;22.60;99.90;;;;;;5039375;28;20751;-81
2022/09/07 10:05:32;;;;;;;3.97;2.78;;;23.40;99.90;;;;;;5055826;28;20036;-82
2022/09/07 10:07:58;;;;;;;4.15;2.70;;;24.20;99.90;;;;;;5056343;28;20474;-82
2022/09/07 10:10:25;;;;;;;3.65;3.22;;;24.90;99.90;;;;;;5075334;28;20047;-81
2022/09/07 10:12:55;;;;;;;4.47;2.85;;;25.20;99.90;;;;;;5075559;28;20134;-77
2022/09/07 10:15:30;;;;;;;4.90;2.58;;;24.90;99.90;;;;;;5093378;28;20349;-80
2022/09/07 10:17:58;;;;;;;2.92;2.20;;;24.50;99.90;;;;;;5075657;28;20509;-79
2022/09/07 10:20:35;;;;;;;3.60;2.55;;;24.00;99.90;;;;;;5093066;28;20101;-78
2022/09/07 10:23:03;;;;;;;3.72;2.65;;;24.00;99.90;;;;;;5093012;28;20109;-78
2022/09/07 10:25:35;;;;;;;4.30;2.28;;;24.00;99.90;;;;;;5075537;28;20079;-81
2022/09/07 10:28:11;;;;;;;4.25;2.63;;;24.00;99.90;;;;;;5093030;28;20055;-79
2022/09/07 10:31:20;;;;;;;3.53;2.80;;;23.80;99.90;;;;;;5074946;28;20059;-82
2022/09/07 10:34:01;;;;;;;3.30;2.25;;;23.70;99.90;;;;;;5074680;28;20463;-80
2022/09/07 10:36:45;;;;;;;3.10;2.30;;;24.20;99.90;;;;;;5075339;28;20063;-80
2022/09/07 10:39:17;;;;;;;3.10;2.05;;;24.60;99.90;;;;;;5074930;28;20079;-79
2022/09/07 10:42:01;;;;;;;3.03;2.15;;;24.60;99.90;;;;;;5075127;28;20333;-79
2022/09/07 10:44:59;;;;;;;3.10;1.60;;;24.80;99.90;;;;;;5091865;28;20128;-78
2022/09/07 10:47:30;;;;;;;2.22;1.80;;;24.40;99.90;;;;;;5065480;28;20048;-78
2022/09/07 10:49:59;;;;;;;2.65;2.20;;;24.60;99.90;;;;;;5075019;28;20445;-78
2022/09/07 10:52:34;;;;;;;2.50;1.85;;;25.20;99.90;;;;;;5092828;28;20199;-80
2022/09/07 10:55:37;;;;;;;3.33;1.90;;;25.30;99.90;;;;;;5091914;28;20063;-79
2022/09/07 10:58:29;;;;;;;2.50;1.92;;;25.60;99.90;;;;;;5092500;28;20094;-80
2022/09/07 11:01:09;;;;;;;3.30;2.20;;;26.40;99.90;;;;;;5074916;28;20056;-77
2022/09/07 11:03:37;;;;;;;5.13;2.00;;;26.40;99.90;;;;;;5092660;28;20083;-79
2022/09/07 11:06:24;;;;;;;3.00;2.17;;;25.80;99.90;;;;;;5092413;28;20442;-80
2022/09/07 11:09:11;;;;;;;2.95;2.08;;;25.20;99.90;;;;;;5092467;28;20115;-79
2022/09/07 11:11:45;;;;;;;2.20;1.45;;;24.70;99.90;;;;;;5092462;28;20054;-78
2022/09/07 11:14:16;;;;;;;3.85;2.30;;;24.20;99.90;;;;;;5092602;28;20044;-79
2022/09/07 11:16:54;;;;;;;2.15;1.67;;;23.80;99.90;;;;;;5092370;28;20036;-79
2022/09/07 11:19:33;;;;;;;3.70;2.00;;;23.60;99.90;;;;;;5092448;28;20048;-79
2022/09/07 11:22:04;;;;;;;4.07;2.13;;;23.50;99.90;;;;;;5092460;28;20357;-78
2022/09/07 11:25:07;;;;;;;3.67;2.22;;;23.40;99.90;;;;;;5074806;28;20160;-79
2022/09/07 11:27:44;;;;;;;2.55;1.75;;;23.50;99.90;;;;;;5092324;28;20109;-78
2022/09/07 11:30:19;;;;;;;3.50;1.85;;;23.60;99.90;;;;;;5074465;28;20365;-78
2022/09/07 11:33:10;;;;;;;2.75;1.98;;;23.40;99.90;;;;;;5074569;28;20323;-79
2022/09/07 11:35:41;;;;;;;2.92;1.80;;;23.20;99.90;;;;;;5092453;28;20318;-79
2022/09/07 11:38:18;;;;;;;3.47;1.88;;;23.20;99.90;;;;;;5092240;28;20070;-79
2022/09/07 11:41:12;;;;;;;2.85;2.00;;;23.60;99.90;;;;;;5092065;28;20040;-79
2022/09/07 11:44:05;;;;;;;3.22;1.95;;;23.80;99.90;;;;;;5092147;28;20044;-82
2022/09/07 11:46:45;;;;;;;3.67;2.05;;;24.20;99.90;;;;;;5091994;28;20393;-80
2022/09/07 11:49:18;;;;;;;4.03;2.38;;;24.40;99.90;;;;;;5092225;28;20044;-81
2022/09/07 11:51:49;;;;;;;3.00;2.50;;;24.30;99.90;;;;;;5092252;28;20048;-79
2022/09/07 11:54:41;;;;;;;3.55;2.22;;;24.00;99.90;;;;;;5074215;28;20040;-78
2022/09/07 11:57:13;;;;;;;3.65;2.70;;;24.40;99.90;;;;;;5091963;28;20051;-78
2022/09/07 11:59:58;;;;;;;3.72;2.63;;;24.90;99.90;;;;;;5074281;28;20048;-78
2022/09/07 12:02:30;;;;;;;3.33;2.33;;;25.20;99.90;;;;;;5074311;28;20048;-79
2022/09/07 12:04:55;;;;;;;3.97;2.40;;;25.30;99.90;;;;;;5074874;28;20048;-79
2022/09/07 12:07:34;;;;;;;3.65;2.08;;;25.20;99.90;;;;;;5082255;28;20048;-79
2022/09/07 12:10:19;;;;;;;2.42;2.00;;;24.90;99.90;;;;;;5098624;28;20044;-78
2022/09/07 12:12:57;;;;;;;4.72;2.30;;;24.80;99.90;;;;;;5077657;28;20094;-81
2022/09/07 12:16:00;;;;;;;2.78;2.17;;;24.80;99.90;;;;;;5077644;28;20044;-78
2022/09/07 12:18:50;;;;;;;3.15;1.40;;;24.80;99.90;;;;;;5095683;28;20044;-80
2022/09/07 12:21:47;;;;;;;3.30;1.77;;;24.90;99.90;;;;;;5077604;28;20403;-78
2022/09/07 12:24:31;;;;;;;3.20;1.80;;;25.00;99.90;;;;;;5082738;28;20070;-79
2022/09/07 12:26:58;;;;;;;2.55;1.88;;;25.10;99.90;;;;;;5095592;28;20055;-80
2022/09/07 12:29:26;;;;;;;3.10;2.10;;;25.00;99.30;;;;;;5077765;28;20036;-79
2022/09/07 12:31:56;;;;;;;2.55;1.92;;;24.80;98.70;;;;;;5094831;28;20123;-80
2022/09/07 12:34:31;;;;;;;2.88;1.90;;;24.40;99.60;;;;;;5095061;28;20453;-79
2022/09/07 12:37:09;;;;;;;3.38;2.05;;;24.30;99.90;;;;;;5095154;28;20087;-78
2022/09/07 12:39:38;;;;;;;2.80;1.80;;;24.30;99.50;;;;;;5095181;28;20100;-79
2022/09/07 12:42:04;;;;;;;3.60;2.22;;;24.20;99.10;;;;;;5086646;28;20100;-82
2022/09/07 12:44:31;;;;;;;3.92;2.20;;;24.20;99.80;;;;;;5077526;28;20131;-80
2022/09/07 12:47:02;;;;;;;3.30;2.35;;;24.40;99.90;;;;;;5090239;28;20153;-79
2022/09/07 12:49:33;;;;;;;3.97;2.42;;;24.60;99.10;;;;;;5057074;28;20094;-79
2022/09/07 12:52:08;;;;;;;2.60;2.00;;;24.60;98.10;;;;;;5057271;28;20326;-78
2022/09/07 12:55:20;;;;;;;3.13;2.40;;;24.50;98.90;;;;;;5074750;28;20044;-80
2022/09/07 12:58:01;;;;;;;4.90;2.40;;;24.30;99.30;;;;;;5011117;28;20072;-80
2022/09/07 13:01:07;;;;;;;4.90;2.80;;;24.10;99.30;;;;;;5017301;28;20486;-80
2022/09/07 13:04:18;;;;;;;4.93;2.60;;;24.00;99.90;;;;;;5034329;28;20041;-80
2022/09/07 13:06:55;;;;;;;4.20;2.95;;;24.10;99.90;;;;;;5017250;28;20052;-80
2022/09/07 13:09:40;;;;;;;4.22;3.15;;;24.30;99.90;;;;;;5074518;28;20040;-82